Time;durP1;ratioP1;P1;durP2;ratioP2;P2;SDS_P1;SDS_P2;PMS_P1;PMS_P2;Temp;Humidity;BMP_temperature;BMP_pressure;BME280_temperature;BME280_humidity;BME280_pressure;Samples;Min_cycle;Max_cycle;Signal;HPM_P1;HPM_P2
2024/01/04 00:02:18;;;;;;;4.28;2.45;;;11.10;89.60;;;;;;5014964;28;20103;-61
2024/01/04 00:04:48;;;;;;;4.93;2.50;;;11.10;89.60;;;;;;5032601;28;20095;-60
2024/01/04 00:07:16;;;;;;;7.05;3.78;;;11.10;89.70;;;;;;5028678;28;20525;-61
2024/01/04 00:09:48;;;;;;;5.22;3.58;;;11.10;89.60;;;;;;5027654;28;20044;-61
2024/01/04 00:12:15;;;;;;;5.65;3.88;;;11.20;89.80;;;;;;5032354;28;21666;-61
2024/01/04 00:14:46;;;;;;;10.55;4.38;;;11.10;89.80;;;;;;5031546;28;20460;-63
2024/01/04 00:17:21;;;;;;;5.82;4.28;;;11.10;89.80;;;;;;5014988;28;20109;-60
2024/01/04 00:19:48;;;;;;;6.47;4.07;;;11.20;89.90;;;;;;5026517;28;20049;-61
2024/01/04 00:22:23;;;;;;;6.25;3.75;;;11.20;89.80;;;;;;5031259;28;20064;-61
2024/01/04 00:24:54;;;;;;;3.40;2.95;;;11.20;90.00;;;;;;5032079;28;20399;-59
2024/01/04 00:27:31;;;;;;;7.15;4.38;;;11.20;89.80;;;;;;5028235;28;20101;-60
2024/01/04 00:29:58;;;;;;;5.35;3.25;;;11.20;89.80;;;;;;5031692;28;20045;-62
2024/01/04 00:32:27;;;;;;;5.93;3.22;;;11.20;89.80;;;;;;5032064;28;20527;-61
2024/01/04 00:34:55;;;;;;;5.35;2.90;;;11.20;89.70;;;;;;5028576;28;20059;-62
2024/01/04 00:37:21;;;;;;;4.57;2.53;;;11.20;89.70;;;;;;5025660;28;20495;-59
2024/01/04 00:39:51;;;;;;;4.55;2.72;;;11.20;89.70;;;;;;5031381;28;20041;-60
2024/01/04 00:42:18;;;;;;;5.60;3.22;;;11.30;89.80;;;;;;5031786;28;20053;-60
2024/01/04 00:44:45;;;;;;;6.70;4.43;;;11.30;89.80;;;;;;5013183;28;20479;-61
2024/01/04 00:47:11;;;;;;;7.53;4.63;;;11.30;89.80;;;;;;5031039;28;20052;-61
2024/01/04 00:49:40;;;;;;;10.43;5.82;;;11.30;89.70;;;;;;5011398;28;20053;-60
2024/01/04 00:52:09;;;;;;;7.90;5.65;;;11.30;89.70;;;;;;5030972;28;20049;-62
2024/01/04 00:54:40;;;;;;;5.35;4.47;;;11.30;89.70;;;;;;5013941;28;20057;-61
2024/01/04 00:57:08;;;;;;;4.63;3.17;;;11.30;89.60;;;;;;5022590;28;20058;-61
2024/01/04 00:59:37;;;;;;;6.97;3.60;;;11.30;89.60;;;;;;5028196;28;20045;-60
2024/01/04 01:02:04;;;;;;;3.67;2.75;;;11.30;89.60;;;;;;5031134;28;20496;-60
2024/01/04 01:04:35;;;;;;;6.93;2.97;;;11.40;89.60;;;;;;5031739;28;20496;-60
2024/01/04 01:07:07;;;;;;;5.35;2.55;;;11.30;89.50;;;;;;5030704;28;20079;-59
2024/01/04 01:09:38;;;;;;;5.43;2.58;;;11.30;89.40;;;;;;5027744;28;20048;-59
2024/01/04 01:12:05;;;;;;;5.30;2.92;;;11.30;89.30;;;;;;5031189;28;20412;-60
2024/01/04 01:14:32;;;;;;;3.35;2.80;;;11.30;89.20;;;;;;5013342;28;20052;-61
2024/01/04 01:17:01;;;;;;;5.45;3.17;;;11.30;89.20;;;;;;5028712;28;20416;-62
2024/01/04 01:19:34;;;;;;;3.63;2.65;;;11.30;89.10;;;;;;4998523;28;20408;-61
2024/01/04 01:22:09;;;;;;;6.53;3.00;;;11.30;89.20;;;;;;5013170;28;20088;-63
2024/01/04 01:24:35;;;;;;;6.63;2.75;;;11.30;89.20;;;;;;5030932;28;20044;-63
2024/01/04 01:27:10;;;;;;;5.35;3.10;;;11.30;89.30;;;;;;5024393;28;20156;-61
2024/01/04 01:29:42;;;;;;;4.10;2.78;;;11.30;89.30;;;;;;5023956;28;20558;-61
2024/01/04 01:32:14;;;;;;;4.05;2.80;;;11.30;89.30;;;;;;5030802;28;20124;-61
2024/01/04 01:34:44;;;;;;;7.90;3.00;;;11.30;89.30;;;;;;5028998;28;20046;-60
2024/01/04 01:37:11;;;;;;;3.85;2.75;;;11.30;89.20;;;;;;5023457;28;20041;-62
2024/01/04 01:39:39;;;;;;;4.40;3.05;;;11.30;89.30;;;;;;5012485;28;20053;-61
2024/01/04 01:42:08;;;;;;;3.97;3.10;;;11.30;89.30;;;;;;5030281;28;20208;-62
2024/01/04 01:44:38;;;;;;;4.90;2.92;;;11.30;89.20;;;;;;5019422;28;20065;-60
2024/01/04 01:47:09;;;;;;;3.45;2.05;;;11.20;89.00;;;;;;5026891;28;20042;-64
2024/01/04 01:49:37;;;;;;;4.93;2.72;;;11.20;88.80;;;;;;5010816;28;20049;-61
2024/01/04 01:52:10;;;;;;;2.60;2.40;;;11.20;88.70;;;;;;5030101;28;20107;-63
2024/01/04 01:54:47;;;;;;;2.20;2.00;;;11.20;88.70;;;;;;5023872;28;20115;-62
2024/01/04 01:57:16;;;;;;;3.42;2.53;;;11.20;88.80;;;;;;5027446;28;20046;-61
2024/01/04 01:59:44;;;;;;;3.55;2.85;;;11.10;88.90;;;;;;5023469;28;20072;-62
2024/01/04 02:02:11;;;;;;;3.22;2.92;;;11.20;89.10;;;;;;5029643;28;20072;-60
2024/01/04 02:04:39;;;;;;;5.47;2.78;;;11.10;89.10;;;;;;5030221;28;20499;-61
2024/01/04 02:07:07;;;;;;;5.47;3.08;;;11.10;89.30;;;;;;5022238;28;20064;-59
2024/01/04 02:09:34;;;;;;;4.15;3.67;;;11.10;89.40;;;;;;5029807;28;20049;-60
2024/01/04 02:12:05;;;;;;;5.28;2.90;;;11.10;89.50;;;;;;5029603;28;20053;-62
2024/01/04 02:14:35;;;;;;;7.07;4.35;;;11.10;90.10;;;;;;5021249;28;20075;-59
2024/01/04 02:17:02;;;;;;;5.45;3.78;;;11.10;89.60;;;;;;5027914;28;20076;-63
2024/01/04 02:19:30;;;;;;;4.45;3.63;;;11.10;89.60;;;;;;5008150;28;20052;-61
2024/01/04 02:21:58;;;;;;;5.72;3.42;;;11.10;89.60;;;;;;5012136;28;20045;-59
2024/01/04 02:24:25;;;;;;;9.18;3.78;;;11.10;89.70;;;;;;5030030;28;20087;-62
2024/01/04 02:26:55;;;;;;;7.13;3.25;;;11.10;89.70;;;;;;5026447;28;20365;-60
2024/01/04 02:29:25;;;;;;;4.15;3.53;;;11.10;89.70;;;;;;5028307;28;20045;-61
2024/01/04 02:31:55;;;;;;;5.72;3.58;;;11.10;89.70;;;;;;5030048;28;20119;-60
2024/01/04 02:34:30;;;;;;;5.13;3.38;;;11.10;89.80;;;;;;5029738;28;20049;-61
2024/01/04 02:36:57;;;;;;;5.15;3.63;;;11.20;89.80;;;;;;5007414;28;20046;-63
2024/01/04 02:39:32;;;;;;;5.18;2.92;;;11.20;89.80;;;;;;5028448;28;20887;-61
2024/01/04 02:41:59;;;;;;;6.53;3.13;;;11.20;89.70;;;;;;5029481;28;20060;-59
2024/01/04 02:44:29;;;;;;;6.28;3.63;;;11.20;89.70;;;;;;5026545;28;20048;-60
2024/01/04 02:47:03;;;;;;;7.13;3.63;;;11.20;89.70;;;;;;5029064;28;20041;-61
2024/01/04 02:49:30;;;;;;;6.57;3.15;;;11.20;89.60;;;;;;5022109;28;20053;-60
2024/01/04 02:52:05;;;;;;;9.27;3.28;;;11.20;89.60;;;;;;5029657;28;20045;-60
2024/01/04 02:54:34;;;;;;;7.97;4.18;;;11.20;89.70;;;;;;5029506;28;20479;-61
2024/01/04 02:57:04;;;;;;;7.53;3.72;;;11.20;89.50;;;;;;5026685;28;20049;-61
2024/01/04 02:59:39;;;;;;;10.77;4.05;;;11.20;89.50;;;;;;5024697;28;20128;-60
2024/01/04 03:02:07;;;;;;;6.13;3.30;;;11.20;89.50;;;;;;5008845;28;20046;-61
2024/01/04 03:04:36;;;;;;;8.02;3.25;;;11.20;89.30;;;;;;5029054;28;20163;-59
2024/01/04 03:07:03;;;;;;;8.98;3.85;;;11.20;89.20;;;;;;5026825;28;20199;-61
2024/01/04 03:09:35;;;;;;;10.35;3.75;;;11.20;89.30;;;;;;5025760;28;20087;-58
2024/01/04 03:12:02;;;;;;;9.40;3.42;;;11.10;89.20;;;;;;5030160;28;20049;-59
2024/01/04 03:14:34;;;;;;;8.05;3.78;;;11.20;89.30;;;;;;5033654;28;20125;-60
2024/01/04 03:17:06;;;;;;;8.68;3.65;;;11.20;90.00;;;;;;5030202;28;20053;-61
2024/01/04 03:19:33;;;;;;;8.75;4.68;;;11.10;89.30;;;;;;5026711;28;20049;-59
2024/01/04 03:22:00;;;;;;;10.52;4.47;;;11.10;89.40;;;;;;5033431;28;20072;-61
2024/01/04 03:24:31;;;;;;;5.65;3.70;;;11.20;89.40;;;;;;5033094;28;20107;-60
2024/01/04 03:26:58;;;;;;;7.10;3.67;;;11.10;89.30;;;;;;5031901;28;20037;-59
2024/01/04 03:29:25;;;;;;;6.38;3.58;;;11.10;89.40;;;;;;5030381;28;20476;-61
2024/01/04 03:31:54;;;;;;;7.03;4.05;;;11.10;90.00;;;;;;5033328;28;20411;-61
2024/01/04 03:34:33;;;;;;;9.90;3.25;;;11.10;89.40;;;;;;5032669;28;20053;-60
2024/01/04 03:37:02;;;;;;;9.65;3.75;;;11.20;89.40;;;;;;5030176;28;20415;-60
2024/01/04 03:39:30;;;;;;;5.57;3.75;;;11.10;89.40;;;;;;5031779;28;20128;-59
2024/01/04 03:41:57;;;;;;;6.47;4.00;;;11.10;89.30;;;;;;5032796;28;20060;-60
2024/01/04 03:44:27;;;;;;;7.03;4.15;;;11.10;89.20;;;;;;5033127;28;20138;-61
2024/01/04 03:47:01;;;;;;;8.55;4.43;;;11.10;89.30;;;;;;5030355;28;20504;-60
2024/01/04 03:49:34;;;;;;;6.93;5.07;;;11.10;89.40;;;;;;5028238;28;20045;-60
2024/01/04 03:52:03;;;;;;;8.30;5.35;;;11.10;89.50;;;;;;5032776;28;20057;-61
2024/01/04 03:54:32;;;;;;;8.60;5.97;;;11.10;89.50;;;;;;5031736;28;20060;-58
2024/01/04 03:56:59;;;;;;;9.40;5.07;;;11.10;89.60;;;;;;5029593;28;20419;-60
2024/01/04 03:59:35;;;;;;;11.85;5.38;;;11.10;89.70;;;;;;5028522;28;20436;-61
2024/01/04 04:02:02;;;;;;;9.15;5.07;;;11.10;89.80;;;;;;5032251;28;20044;-61
2024/01/04 04:04:30;;;;;;;9.68;5.80;;;11.10;89.80;;;;;;5032223;28;20029;-57
2024/01/04 04:06:59;;;;;;;10.60;6.50;;;11.10;89.80;;;;;;5012116;28;20061;-59
2024/01/04 04:09:26;;;;;;;13.32;7.47;;;11.10;89.90;;;;;;5030511;28;20456;-61
2024/01/04 04:11:55;;;;;;;10.30;6.40;;;11.20;90.00;;;;;;5032425;28;20577;-61
2024/01/04 04:14:22;;;;;;;9.20;6.47;;;11.20;89.90;;;;;;5029572;28;20523;-61
2024/01/04 04:16:49;;;;;;;7.57;6.47;;;11.20;89.80;;;;;;5031793;28;20045;-61
2024/01/04 04:19:18;;;;;;;10.65;6.65;;;11.20;89.60;;;;;;5028126;28;20061;-60
2024/01/04 04:21:45;;;;;;;11.88;8.10;;;11.20;89.50;;;;;;5028583;28;20041;-60
2024/01/04 04:24:14;;;;;;;12.50;8.73;;;11.20;89.50;;;;;;5013619;28;20423;-59
2024/01/04 04:26:41;;;;;;;12.60;8.48;;;11.20;89.50;;;;;;5031368;28;20055;-59
2024/01/04 04:29:12;;;;;;;14.23;8.80;;;11.20;89.60;;;;;;5026669;28;20508;-60
2024/01/04 04:31:42;;;;;;;14.20;9.07;;;11.20;89.60;;;;;;5032092;28;20518;-58
2024/01/04 04:34:08;;;;;;;14.40;9.63;;;11.20;89.70;;;;;;5031625;28;20037;-62
2024/01/04 04:36:40;;;;;;;11.70;8.13;;;11.20;89.80;;;;;;5014110;28;20052;-61
2024/01/04 04:39:08;;;;;;;12.13;8.05;;;11.20;89.80;;;;;;5030907;28;20038;-61
2024/01/04 04:41:42;;;;;;;12.65;9.65;;;11.20;89.90;;;;;;5031456;28;20037;-60
2024/01/04 04:44:19;;;;;;;11.68;8.38;;;11.20;89.90;;;;;;5025655;28;20037;-60
2024/01/04 04:46:46;;;;;;;9.95;7.93;;;11.20;89.80;;;;;;5025329;28;20037;-59
2024/01/04 04:49:13;;;;;;;11.85;8.05;;;11.20;89.60;;;;;;5027851;28;20033;-60
2024/01/04 04:51:48;;;;;;;10.65;7.97;;;11.20;89.70;;;;;;5031851;28;20103;-62
2024/01/04 04:54:20;;;;;;;9.57;6.97;;;11.20;89.80;;;;;;5031002;28;20038;-59
2024/01/04 04:56:48;;;;;;;10.48;5.65;;;11.30;89.90;;;;;;5025049;28;20115;-60
2024/01/04 04:59:17;;;;;;;10.90;5.07;;;11.20;89.80;;;;;;5025972;28;20112;-60
2024/01/04 05:01:44;;;;;;;6.85;3.63;;;11.20;89.70;;;;;;5031081;28;20037;-58
2024/01/04 05:04:21;;;;;;;5.25;3.35;;;11.20;89.60;;;;;;5031414;28;20107;-60
2024/01/04 05:06:50;;;;;;;5.55;3.28;;;11.30;89.60;;;;;;5007108;28;20046;-58
2024/01/04 05:09:18;;;;;;;4.40;2.90;;;11.20;89.50;;;;;;5028515;28;20049;-58
2024/01/04 05:11:48;;;;;;;5.53;3.20;;;11.20;89.40;;;;;;5031572;28;20037;-60
2024/01/04 05:14:14;;;;;;;3.80;3.50;;;11.20;89.40;;;;;;5029190;28;20389;-58
2024/01/04 05:16:49;;;;;;;6.50;3.67;;;11.30;89.40;;;;;;5028768;28;20557;-61
2024/01/04 05:19:20;;;;;;;4.75;2.72;;;11.20;89.30;;;;;;5027263;28;20041;-62
2024/01/04 05:21:49;;;;;;;4.20;2.58;;;11.20;89.20;;;;;;5031210;28;20056;-57
2024/01/04 05:24:18;;;;;;;3.70;2.33;;;11.30;89.10;;;;;;5030843;28;20044;-57
2024/01/04 05:26:45;;;;;;;3.03;1.90;;;11.20;89.00;;;;;;5029353;28;20041;-61
2024/01/04 05:29:12;;;;;;;4.72;2.22;;;11.20;88.80;;;;;;5028507;28;20044;-61
2024/01/04 05:31:39;;;;;;;1.80;1.70;;;11.20;88.80;;;;;;5030421;28;20512;-60
2024/01/04 05:34:10;;;;;;;5.18;2.20;;;11.10;88.60;;;;;;5030770;28;20124;-58
2024/01/04 05:36:40;;;;;;;2.17;1.50;;;11.10;88.50;;;;;;5028383;28;20052;-58
2024/01/04 05:39:13;;;;;;;1.80;1.42;;;11.10;88.40;;;;;;5029596;28;20136;-58
2024/01/04 05:41:40;;;;;;;3.22;2.70;;;11.10;88.40;;;;;;5030906;28;20056;-58
2024/01/04 05:44:10;;;;;;;3.15;1.90;;;11.10;88.40;;;;;;5028120;28;20038;-60
2024/01/04 05:46:37;;;;;;;2.13;2.03;;;11.00;88.50;;;;;;5030011;28;20041;-61
2024/01/04 05:49:04;;;;;;;3.15;1.92;;;11.00;88.60;;;;;;5026938;28;20044;-60
2024/01/04 05:51:33;;;;;;;2.40;1.95;;;11.00;88.60;;;;;;5027860;28;20047;-61
2024/01/04 05:54:09;;;;;;;2.08;1.75;;;10.90;88.60;;;;;;5030325;28;20132;-60
2024/01/04 05:56:39;;;;;;;2.25;2.05;;;10.90;88.70;;;;;;5027484;28;20055;-59
2024/01/04 05:59:06;;;;;;;1.92;1.73;;;10.90;88.70;;;;;;5025966;28;20049;-57
2024/01/04 06:01:33;;;;;;;2.03;1.25;;;10.90;88.70;;;;;;5029936;28;20456;-57
2024/01/04 06:04:01;;;;;;;3.70;1.50;;;10.90;88.70;;;;;;5030366;28;20737;-61
2024/01/04 06:06:31;;;;;;;5.30;1.70;;;10.90;88.70;;;;;;5030290;28;20048;-62
2024/01/04 06:08:58;;;;;;;2.70;1.90;;;10.90;88.70;;;;;;5025358;28;20419;-58
2024/01/04 06:11:25;;;;;;;4.22;2.17;;;10.90;88.80;;;;;;5030262;28;20052;-59
2024/01/04 06:13:54;;;;;;;2.78;1.98;;;10.90;88.80;;;;;;5029975;28;20038;-60
2024/01/04 06:16:21;;;;;;;2.42;1.88;;;10.90;88.90;;;;;;5025970;28;20056;-59
2024/01/04 06:18:48;;;;;;;3.75;2.33;;;10.90;88.80;;;;;;5026292;28;20133;-61
2024/01/04 06:21:23;;;;;;;3.33;2.15;;;10.80;88.70;;;;;;5030054;28;20079;-59
2024/01/04 06:23:56;;;;;;;2.10;1.90;;;10.90;88.70;;;;;;5029529;28;20111;-57
2024/01/04 06:26:24;;;;;;;2.33;1.83;;;10.80;88.60;;;;;;5029992;28;20037;-61
2024/01/04 06:28:55;;;;;;;2.90;1.77;;;10.80;88.50;;;;;;5026331;28;20689;-61
2024/01/04 06:31:22;;;;;;;1.48;1.38;;;10.80;88.50;;;;;;5028335;28;20150;-58
2024/01/04 06:33:54;;;;;;;2.70;1.65;;;10.80;88.50;;;;;;5029686;28;20045;-60
2024/01/04 06:36:21;;;;;;;1.15;1.05;;;10.80;88.50;;;;;;5028756;28;20140;-61
2024/01/04 06:38:50;;;;;;;2.40;1.60;;;10.80;88.60;;;;;;5025262;28;20116;-59
2024/01/04 06:41:19;;;;;;;1.42;1.27;;;10.80;88.70;;;;;;5025192;28;20112;-55
2024/01/04 06:43:46;;;;;;;2.10;1.65;;;10.80;88.80;;;;;;5029489;28;20055;-61
2024/01/04 06:46:15;;;;;;;2.65;2.20;;;10.80;88.80;;;;;;5026708;28;20401;-59
2024/01/04 06:48:41;;;;;;;2.67;2.47;;;10.80;88.80;;;;;;5025509;28;20046;-58
2024/01/04 06:51:20;;;;;;;3.00;2.67;;;10.70;88.80;;;;;;5023059;28;20075;-59
2024/01/04 06:53:53;;;;;;;4.65;3.22;;;10.70;88.90;;;;;;5030028;28;20121;-57
2024/01/04 06:56:19;;;;;;;4.20;3.65;;;10.80;89.00;;;;;;5030126;28;20037;-58
2024/01/04 06:58:46;;;;;;;6.97;3.60;;;10.80;88.90;;;;;;5023721;28;20048;-59
2024/01/04 07:01:18;;;;;;;5.25;4.15;;;10.70;88.90;;;;;;5029877;28;20065;-56
2024/01/04 07:03:49;;;;;;;5.03;3.75;;;10.70;88.90;;;;;;5029958;28;20056;-57
2024/01/04 07:06:16;;;;;;;4.68;3.50;;;10.70;89.00;;;;;;5030083;28;20041;-58
2024/01/04 07:08:43;;;;;;;4.50;3.10;;;10.70;89.10;;;;;;5026759;28;20047;-58
2024/01/04 07:11:12;;;;;;;3.05;2.75;;;10.70;89.10;;;;;;5029546;28;20049;-60
2024/01/04 07:13:41;;;;;;;5.90;3.08;;;10.70;89.10;;;;;;5029511;28;20084;-58
2024/01/04 07:16:09;;;;;;;5.45;2.47;;;10.70;89.20;;;;;;5028189;28;20451;-60
2024/01/04 07:18:45;;;;;;;3.33;2.97;;;10.70;89.20;;;;;;5009109;28;20053;-59
2024/01/04 07:21:22;;;;;;;6.37;3.10;;;10.80;89.30;;;;;;5028229;28;20053;-60
2024/01/04 07:23:54;;;;;;;4.50;2.72;;;10.80;89.30;;;;;;5029979;28;20850;-58
2024/01/04 07:26:23;;;;;;;3.97;3.10;;;10.80;89.40;;;;;;5027576;28;20052;-57
2024/01/04 07:28:56;;;;;;;4.68;2.72;;;10.80;89.50;;;;;;5010832;28;20470;-58
2024/01/04 07:31:23;;;;;;;5.43;3.70;;;10.80;89.50;;;;;;5030128;28;20079;-57
2024/01/04 07:33:53;;;;;;;6.20;3.25;;;10.80;89.40;;;;;;5029783;28;20046;-60
2024/01/04 07:36:20;;;;;;;3.97;3.05;;;10.80;89.30;;;;;;5027832;28;20455;-58
2024/01/04 07:38:49;;;;;;;5.55;3.42;;;10.80;89.90;;;;;;5028724;28;20072;-61
2024/01/04 07:41:16;;;;;;;4.18;3.78;;;10.80;89.30;;;;;;5011992;28;20452;-59
2024/01/04 07:43:45;;;;;;;6.28;3.67;;;10.80;89.20;;;;;;5027262;28;20053;-61
2024/01/04 07:46:17;;;;;;;5.45;4.07;;;10.80;89.30;;;;;;5029857;28;20087;-60
2024/01/04 07:48:44;;;;;;;6.15;4.40;;;10.80;89.20;;;;;;5022196;28;20456;-60
2024/01/04 07:51:13;;;;;;;8.13;4.95;;;10.80;89.10;;;;;;5029875;28;20403;-61
2024/01/04 07:53:45;;;;;;;7.07;5.00;;;10.80;89.20;;;;;;5029548;28;20121;-57
2024/01/04 07:56:16;;;;;;;4.65;3.90;;;10.80;89.20;;;;;;5027758;28;20117;-60
2024/01/04 07:58:47;;;;;;;3.60;3.10;;;10.80;89.00;;;;;;5028087;28;20049;-59
2024/01/04 08:01:23;;;;;;;4.95;3.30;;;10.80;88.80;;;;;;5033399;28;20044;-58
2024/01/04 08:03:50;;;;;;;5.03;3.10;;;10.80;88.50;;;;;;5033173;28;20104;-60
2024/01/04 08:06:26;;;;;;;3.58;3.10;;;10.80;88.50;;;;;;5032484;28;20075;-60
2024/01/04 08:08:57;;;;;;;4.35;3.13;;;10.80;88.70;;;;;;5031446;28;20083;-58
2024/01/04 08:11:24;;;;;;;5.60;2.97;;;10.70;88.80;;;;;;5033306;28;20048;-58
2024/01/04 08:13:52;;;;;;;3.63;2.67;;;10.70;89.10;;;;;;5032915;28;20053;-58
2024/01/04 08:16:19;;;;;;;4.10;3.13;;;10.70;89.40;;;;;;5031846;28;20075;-60
2024/01/04 08:18:51;;;;;;;7.72;2.92;;;10.70;89.60;;;;;;5026011;28;20044;-58
2024/01/04 08:21:18;;;;;;;4.00;2.80;;;10.80;89.80;;;;;;5033064;28;20041;-56
2024/01/04 08:23:50;;;;;;;7.10;3.75;;;10.80;89.90;;;;;;5032712;28;20455;-59
2024/01/04 08:26:16;;;;;;;5.45;3.28;;;10.80;89.90;;;;;;5032869;28;20041;-60
2024/01/04 08:28:43;;;;;;;9.05;3.72;;;10.80;89.90;;;;;;5029745;28;20052;-62
2024/01/04 08:31:11;;;;;;;5.22;4.22;;;10.80;90.00;;;;;;5033007;28;20407;-58
2024/01/04 08:33:44;;;;;;;7.50;4.97;;;10.90;90.00;;;;;;5032725;28;20037;-58
2024/01/04 08:36:17;;;;;;;7.15;4.55;;;10.90;90.00;;;;;;5027004;28;20048;-60
2024/01/04 08:38:49;;;;;;;7.10;4.55;;;10.90;90.00;;;;;;5028508;28;20041;-57
2024/01/04 08:41:21;;;;;;;9.70;4.45;;;11.00;90.00;;;;;;5032502;28;20034;-59
2024/01/04 08:43:48;;;;;;;7.80;3.87;;;11.00;89.80;;;;;;5032039;28;20037;-59
2024/01/04 08:46:19;;;;;;;5.75;3.30;;;11.00;89.60;;;;;;5028160;28;20034;-58
2024/01/04 08:48:50;;;;;;;5.18;3.45;;;11.00;89.40;;;;;;5028052;28;20104;-60
2024/01/04 08:51:17;;;;;;;5.47;2.85;;;11.00;89.20;;;;;;5032486;28;20452;-57
2024/01/04 08:53:49;;;;;;;2.63;2.30;;;11.00;88.90;;;;;;5031936;28;20057;-57
2024/01/04 08:56:21;;;;;;;4.50;2.28;;;11.00;88.70;;;;;;5032534;28;20602;-60
2024/01/04 08:58:47;;;;;;;5.45;2.60;;;11.00;88.60;;;;;;5028878;28;20045;-58
2024/01/04 09:01:17;;;;;;;5.25;2.17;;;11.00;88.60;;;;;;5032282;28;20037;-59
2024/01/04 09:03:49;;;;;;;3.78;2.15;;;11.00;88.40;;;;;;5031940;28;20041;-64
2024/01/04 09:06:18;;;;;;;2.30;1.95;;;10.90;88.30;;;;;;5029774;28;20033;-59
2024/01/04 09:08:49;;;;;;;3.03;1.75;;;10.90;88.20;;;;;;5028487;28;20121;-63
2024/01/04 09:11:19;;;;;;;5.18;1.70;;;10.90;88.20;;;;;;5029793;28;20103;-59
2024/01/04 09:13:51;;;;;;;3.15;1.95;;;10.90;88.40;;;;;;5032085;28;20072;-58
2024/01/04 09:16:22;;;;;;;4.78;2.55;;;10.90;88.50;;;;;;5029012;28;20120;-58
2024/01/04 09:18:52;;;;;;;3.72;2.45;;;10.90;88.50;;;;;;5024642;28;20049;-58
2024/01/04 09:21:21;;;;;;;4.65;3.20;;;10.80;88.80;;;;;;5029209;28;20397;-59
2024/01/04 09:23:52;;;;;;;4.15;3.65;;;10.80;89.10;;;;;;5031902;28;20507;-61
2024/01/04 09:26:24;;;;;;;5.22;4.22;;;10.90;89.40;;;;;;5030187;28;20045;-60
2024/01/04 09:28:56;;;;;;;7.63;4.53;;;10.90;89.60;;;;;;5028308;28;20044;-60
2024/01/04 09:31:27;;;;;;;6.00;4.43;;;10.90;89.90;;;;;;5031793;28;20064;-59
2024/01/04 09:33:58;;;;;;;7.70;4.05;;;10.90;90.00;;;;;;5030387;28;20124;-58
2024/01/04 09:36:27;;;;;;;6.07;3.63;;;11.00;90.10;;;;;;5025902;28;20049;-61
2024/01/04 09:38:58;;;;;;;5.10;3.30;;;11.00;90.10;;;;;;5027769;28;20045;-58
2024/01/04 09:41:35;;;;;;;6.40;3.75;;;11.10;90.10;;;;;;5031328;28;20048;-60
2024/01/04 09:44:05;;;;;;;7.93;3.10;;;11.10;90.20;;;;;;5030381;28;20029;-58
2024/01/04 09:46:34;;;;;;;6.13;3.33;;;11.20;90.20;;;;;;5026353;28;20090;-58
2024/01/04 09:49:01;;;;;;;5.35;3.42;;;11.20;90.20;;;;;;5027649;28;20482;-60
2024/01/04 09:51:39;;;;;;;8.13;4.82;;;11.30;90.20;;;;;;5030998;28;20059;-60
2024/01/04 09:54:08;;;;;;;8.75;3.80;;;11.30;90.20;;;;;;5031175;28;20049;-57
2024/01/04 09:56:42;;;;;;;5.55;3.88;;;11.30;90.20;;;;;;5007743;28;20099;-58
2024/01/04 09:59:11;;;;;;;10.50;3.60;;;11.40;90.40;;;;;;5025161;28;20049;-63
2024/01/04 10:01:38;;;;;;;5.45;3.80;;;11.40;90.10;;;;;;5030695;28;20050;-58
2024/01/04 10:04:11;;;;;;;6.63;3.58;;;11.40;90.00;;;;;;5030624;28;20037;-58
2024/01/04 10:06:43;;;;;;;8.95;4.72;;;11.50;90.00;;;;;;5027509;28;20500;-59
2024/01/04 10:09:51;;;;;;;7.15;4.28;;;11.50;89.80;;;;;;5029840;28;20041;-61
2024/01/04 10:12:28;;;;;;;6.88;3.78;;;11.50;89.90;;;;;;4969833;28;20513;-58
2024/01/04 10:14:57;;;;;;;8.77;4.63;;;11.50;89.80;;;;;;4969248;28;20061;-61
2024/01/04 10:17:26;;;;;;;8.82;3.83;;;11.50;89.90;;;;;;5003439;28;20470;-59
2024/01/04 10:19:58;;;;;;;6.25;4.25;;;11.60;90.00;;;;;;5024497;28;20045;-59
2024/01/04 10:22:27;;;;;;;7.28;3.90;;;11.60;89.90;;;;;;5029842;28;20116;-58
2024/01/04 10:25:12;;;;;;;4.50;3.65;;;11.60;89.90;;;;;;5030510;28;20038;-59
2024/01/04 10:27:44;;;;;;;7.50;3.70;;;11.60;90.00;;;;;;5025262;28;20046;-61
2024/01/04 10:30:26;;;;;;;4.60;3.58;;;11.60;89.80;;;;;;5030716;28;20067;-58
2024/01/04 10:32:55;;;;;;;8.18;3.75;;;11.70;89.90;;;;;;5029790;28;20266;-60
2024/01/04 10:35:29;;;;;;;7.35;3.72;;;11.70;89.70;;;;;;5025414;28;20136;-60
2024/01/04 10:37:58;;;;;;;7.38;3.50;;;11.70;89.60;;;;;;5026297;28;20052;-60
2024/01/04 10:40:26;;;;;;;5.30;3.15;;;11.70;89.70;;;;;;5030713;28;20049;-57
2024/01/04 10:42:57;;;;;;;;;;;11.70;89.90;;;;;;5028563;28;20080;-59
2024/01/04 10:45:27;;;;;;;8.13;3.70;;;11.80;90.20;;;;;;5012377;28;19921;-58
2024/01/04 10:47:55;;;;;;;5.68;3.58;;;11.80;90.00;;;;;;5027721;28;20045;-59
2024/01/04 10:50:28;;;;;;;8.70;4.10;;;11.80;90.10;;;;;;5009706;28;20042;-58
2024/01/04 10:52:59;;;;;;;7.57;3.33;;;11.90;90.20;;;;;;5030489;28;20100;-58
2024/01/04 10:55:27;;;;;;;5.90;3.50;;;11.90;90.10;;;;;;5029719;28;20100;-56
2024/01/04 10:58:02;;;;;;;7.07;3.90;;;12.00;90.00;;;;;;5025685;28;20132;-59
2024/01/04 11:00:43;;;;;;;5.85;3.80;;;12.00;89.60;;;;;;5030192;28;20037;-58
2024/01/04 11:03:15;;;;;;;6.15;3.60;;;12.10;89.70;;;;;;5029938;28;20037;-57
2024/01/04 11:05:51;;;;;;;7.25;3.22;;;12.10;89.50;;;;;;5027063;28;20061;-58
2024/01/04 11:08:22;;;;;;;4.13;3.50;;;12.10;89.10;;;;;;5027494;28;20037;-55
2024/01/04 11:10:52;;;;;;;5.65;3.00;;;12.10;89.20;;;;;;5029330;28;20068;-57
2024/01/04 11:13:23;;;;;;;4.25;2.88;;;12.10;89.00;;;;;;5027488;28;20444;-57
2024/01/04 11:16:08;;;;;;;4.28;2.80;;;12.20;89.20;;;;;;5022209;28;20049;-56
2024/01/04 11:18:50;;;;;;;6.97;3.00;;;12.20;89.50;;;;;;5019817;28;20526;-60
2024/01/04 11:21:41;;;;;;;4.83;3.03;;;12.20;89.60;;;;;;5028985;28;20053;-56
2024/01/04 11:24:41;;;;;;;6.13;2.60;;;12.30;89.50;;;;;;5029901;28;20428;-54
2024/01/04 11:27:14;;;;;;;6.20;3.63;;;12.30;89.20;;;;;;5015725;28;20058;-55
2024/01/04 11:29:49;;;;;;;6.68;3.08;;;12.30;89.00;;;;;;5021451;28;20044;-58
2024/01/04 11:32:26;;;;;;;5.53;3.25;;;12.40;89.00;;;;;;5030229;28;20133;-57
2024/01/04 11:34:58;;;;;;;8.10;3.55;;;12.40;88.70;;;;;;5032650;28;20072;-57
2024/01/04 11:37:35;;;;;;;10.18;3.50;;;12.40;88.40;;;;;;5026930;28;20488;-58
2024/01/04 11:40:09;;;;;;;8.70;3.40;;;12.40;87.60;;;;;;5033615;28;20724;-57
2024/01/04 11:42:44;;;;;;;8.30;3.60;;;12.40;87.10;;;;;;5026963;28;20087;-56
2024/01/04 11:45:17;;;;;;;7.15;3.80;;;12.40;86.60;;;;;;5032473;28;20041;-57
2024/01/04 11:47:47;;;;;;;16.50;4.40;;;12.40;86.30;;;;;;5024602;28;20052;-60
2024/01/04 11:50:24;;;;;;;11.27;3.60;;;12.30;86.30;;;;;;5025642;28;20454;-55
2024/01/04 11:53:07;;;;;;;12.68;4.68;;;12.30;86.00;;;;;;5033519;28;20056;-56
2024/01/04 11:55:41;;;;;;;9.77;3.80;;;12.20;85.80;;;;;;5024993;28;20088;-60
2024/01/04 11:58:12;;;;;;;5.55;2.08;;;12.10;85.90;;;;;;5023844;28;20045;-58
2024/01/04 12:00:47;;;;;;;5.15;1.90;;;12.10;85.30;;;;;;5033503;28;20053;-57
2024/01/04 12:03:18;;;;;;;4.88;1.50;;;12.00;85.00;;;;;;5032951;28;20454;-60
2024/01/04 12:05:47;;;;;;;9.73;3.60;;;12.00;85.00;;;;;;5031323;28;20069;-58
2024/01/04 12:08:31;;;;;;;8.68;3.95;;;11.90;85.90;;;;;;5024837;28;20046;-58
2024/01/04 12:11:04;;;;;;;8.48;3.78;;;11.90;86.60;;;;;;5033480;28;20046;-60
2024/01/04 12:13:36;;;;;;;11.95;4.15;;;12.00;87.30;;;;;;5025611;28;20044;-58
2024/01/04 12:16:03;;;;;;;12.20;4.18;;;11.90;87.60;;;;;;5030184;28;20048;-56
2024/01/04 12:18:32;;;;;;;8.10;4.22;;;12.00;87.70;;;;;;5024908;28;20040;-58
2024/01/04 12:21:05;;;;;;;15.90;5.35;;;12.00;87.70;;;;;;5028712;28;20065;-57
2024/01/04 12:23:48;;;;;;;9.70;4.80;;;12.10;88.10;;;;;;5026751;28;20121;-56
2024/01/04 12:26:23;;;;;;;12.02;4.03;;;12.10;87.00;;;;;;5032418;28;20049;-58
2024/01/04 12:28:52;;;;;;;9.10;3.90;;;12.20;86.60;;;;;;5027710;28;20411;-55
2024/01/04 12:31:24;;;;;;;11.45;4.75;;;12.20;86.40;;;;;;5032726;28;20041;-55
2024/01/04 12:33:57;;;;;;;14.95;4.65;;;12.30;86.00;;;;;;5032811;28;20526;-58
2024/01/04 12:36:39;;;;;;;14.68;4.68;;;12.30;85.90;;;;;;5024056;28;20447;-57
2024/01/04 12:39:12;;;;;;;14.85;4.45;;;12.20;85.80;;;;;;5031314;28;20049;-58
2024/01/04 12:41:49;;;;;;;9.18;4.25;;;12.20;85.30;;;;;;5032864;28;20458;-60
2024/01/04 12:44:17;;;;;;;12.00;4.53;;;12.20;85.00;;;;;;5028258;28;20108;-58
2024/01/04 12:46:46;;;;;;;9.13;4.10;;;12.20;84.70;;;;;;5031254;28;20045;-60
2024/01/04 12:49:23;;;;;;;11.63;4.28;;;12.20;84.70;;;;;;5020955;28;20116;-57
2024/01/04 12:51:51;;;;;;;14.35;4.40;;;12.20;84.70;;;;;;5015182;28;20460;-58
2024/01/04 12:54:21;;;;;;;9.82;3.83;;;12.10;84.70;;;;;;5032250;28;20447;-56
2024/01/04 12:56:54;;;;;;;;;;;12.10;84.70;;;;;;5032827;28;20435;-59
2024/01/04 12:59:21;;;;;;;9.55;3.33;;;12.10;84.20;;;;;;5026703;28;19921;-56
2024/01/04 13:01:53;;;;;;;8.98;3.85;;;12.10;85.00;;;;;;5032470;28;20518;-56
2024/01/04 13:04:21;;;;;;;6.53;3.22;;;12.10;84.80;;;;;;5014133;28;20052;-57